Tiempo atmosférico en la estación meteorológica de Girona Aeropuerto, Girona (143 m.)



Fecha
DESCASC
Temp. máxima en grados centígrados (hora)
DESCASC
Temp. mínima en grados centígrados (hora)
DESCASC
Temp. media en grados centígrados
DESCASC
Racha de viento máxima en m/sg (hora)
DESCASC
Velocidad máxima media en intervalos de 10 minutos(hora)
DESCASC
Precipitaciones diarias en mm
DESCASC
Precipitaciones de 00:00 a 06:00 en mm
DESCASC
Precipitaciones de 06:00 a 12:00 en mm
DESCASC
Precipitaciones de 12:00 a 18:00 en mm
DESCASC
Precipitaciones de 18:00 a 24:00 en mm
DESCASC
18-01-2018 15.8 (15:40) 2.6 (23:59) 9.2 5.83 (14:10) 3.33 (13:50) 0 0 0 0 0
17-01-2018 15.2 (12:30) 4 (08:40) 9.6 7.78 (04:20) 5 (16:00) 0 0 0 0 0
16-01-2018 18.9 (14:20) 1.6 (08:20) 10.2 5 (23:59) 2.5 (21:30) 0 0 0 0 0
15-01-2018 14.1 (15:20) 2.5 (07:20) 8.3 8.89 (20:50) -- (--) 0 0 0 0 0
14-01-2018 -- (--) -- (--) -- -- (--) -- (--) -- -- -- 0 0
13-01-2018 12.9 (12:30) -3.4 (-00:0) 4.7 12.78 (12:50) 9.72 (13:30) 3.2 0 0 0 3.2
12-01-2018 14.7 (15:30) -1.8 (-00:0) 6.4 7.22 (16:50) 4.44 (17:00) 0 0 0 0 0
11-01-2018 12.5 (12:10) 3.4 (00:00) 8 6.67 (00:50) 4.17 (01:50) 0.4 0.4 0 0 0
10-01-2018 15.6 (14:30) 2.8 (00:00) 9.2 10.28 (00:10) 6.67 (00:20) 0 0 0 0 0
09-01-2018 14.3 (15:00) 0.7 (00:00) 7.5 10.28 (14:20) 7.5 (14:20) 0 0 0 0 0
08-01-2018 12.2 (15:30) 0.6 (00:00) 6.4 8.33 (15:10) 6.11 (17:40) 0 0 0 0 0
07-01-2018 13.1 (00:30) 5 (00:00) 9.1 12.5 (15:40) 6.39 (15:40) 22.3 0 13.3 4.6 4.4
06-01-2018 15.8 (14:20) 0.4 (00:00) 8.1 9.17 (20:40) 5.28 (19:40) 0 0 0 0 0
05-01-2018 19.7 (15:20) 2.9 (00:00) 11.3 8.89 (12:50) 4.72 (16:40) 0 0 0 0 0
04-01-2018 22.2 (14:40) 4 (08:00) 13.1 5 (17:20) 3.61 (08:30) 0 0 0 0 0
03-01-2018 20.6 (15:20) 3.7 (00:00) 12.2 10.28 (14:40) 5.83 (14:40) 0 0 0 0 0
02-01-2018 -- (--) -- (--) -- -- (--) -- (--) -- -- -- 0 0
01-01-2018 -- (--) -- (--) -- -- (--) -- (--) -- 0 0 -- --
31-12-2017 20.3 (13:50) 0.5 (00:00) 10.4 11.67 (16:20) 8.06 (14:20) 0 0 0 0 0
30-12-2017 20.9 (14:20) 0 (00:00) 10.4 10.83 (10:50) 4.72 (10:50) 0 0 0 0 0
29-12-2017 10.4 (15:20) -3.5 (-00:0) 3.4 6.67 (15:40) 4.72 (15:40) 0 0 0 0 0
28-12-2017 11.4 (14:20) -3.9 (-00:0) 3.7 5 (02:40) 2.5 (01:40) 0 0 0 0 0
27-12-2017 13.2 (15:20) 0.9 (00:00) 7 15.28 (02:30) 10.28 (02:30) 0 0 0 0 0
26-12-2017 14.4 (14:20) 2 (00:00) 8.2 12.5 (23:50) 8.89 (23:50) 0 0 0 0 0
25-12-2017 16.4 (14:30) -2 (-00:0) 7.2 12.78 (14:40) 8.61 (14:40) 0 0 0 0 0
24-12-2017 14.4 (15:30) -1 (-00:0) 6.7 2.5 (09:30) 1.39 (23:50) 0 0 0 0 0
23-12-2017 16 (14:50) 0.1 (00:00) 8.1 5 (13:00) 3.89 (16:40) 0 0 0 0 0
22-12-2017 16.4 (14:30) 0.5 (00:00) 8.4 3.61 (04:20) 2.22 (03:50) 0 0 0 0 0
21-12-2017 15 (14:50) 2.1 (00:00) 8.5 5.83 (16:10) 4.17 (16:20) 0 0 0 0 0

Gráficas

Temp. máximas Temp. mínimas Temp. medias Precipitaciones Rachas de viento máximas Velocidades máximas media en intervalos de 10 minutos

Datos horarios

Fecha y hora oficial Temperatura (ºC) Velocidad del viento (km/h) Dirección del viento Racha (km/h) Dirección de racha Precipitación (mm) Presión (hPa) Tendencia (hPa) Humedad (%)
2018-01-19 23:00:00 7.7 5 Sudoeste 8 Sudoeste 0 1004.3 0.8 87
2018-01-19 22:00:00 8.3 5 Nordeste 13 Nordeste 0 1004.3 1.1 85
2018-01-19 21:00:00 9.3 4 Oeste 13 Noroeste 0 1004 1.3 78
2018-01-19 20:00:00 8.6 4 Oeste 11 Oeste 0 1003.5 1.7 82
2018-01-19 19:00:00 10.1 4 Oeste 8 Oeste 0 1003.2 1.4 79
2018-01-19 18:00:00 10.4 0 Calma 5 Sudoeste 0 1002.7 1.2 77
2018-01-19 17:00:00 12.4 5 Sudoeste 11 Sur 0 1001.8 0.4 70
2018-01-19 16:00:00 12 0 Calma 8 Sur 0 1001.8 -0.1 69
2018-01-19 15:00:00 12.5 0 Calma 8 Este 0 1001.5 -1.3 66
2018-01-19 14:00:00 11.1 5 Nordeste 11 Norte 0 1001.4 -1.6 71
2018-01-19 13:00:00 9.8 0 Calma 11 Norte 0 1001.9 -0.9 74
2018-01-19 12:00:00 7.3 4 Nordeste 8 Nordeste 0 1002.8 0.5 87
2018-01-19 11:00:00 4.5 0 Calma 8 Oeste 0 1003 0.8 92
2018-01-19 10:00:00 2.2 0 Calma 5 Sudoeste 0 1002.8 0.8 96
2018-01-19 09:00:00 0.7 0 Calma 5 Noroeste 0 1002.3 0.5 97
2018-01-19 08:00:00 0.1 0 Calma 5 Norte 0 1002.2 0.1 97
2018-01-19 07:00:00 0.6 4 Este 13 Nordeste 0 1002 -0.2 96
2018-01-19 06:00:00 2.4 5 Noroeste 9 Oeste 0 1001.8 -0.9 98
2018-01-19 05:00:00 0.9 5 Oeste 15 Sur 0 1002.1 -1.3 97
2018-01-19 04:00:00 2.1 0 Calma 5 Norte 0 1002.2 -1.9 97
2018-01-19 03:00:00 2.2 4 Nordeste 9 Norte 0 1002.7 -1.8 97
2018-01-19 02:00:00 1.8 0 Calma 4 Este 0 1003.4 -1 96
2018-01-19 01:00:00 3.3 2 Sur 4 Sur 0 1004.1 0 95
2018-01-19 00:00:00 2.9 0 Calma 2 Nordeste 0 1004.5 0.5 94
2018-01-18 23:00:00 3.9 0 Calma 4 Norte 0 1004.4 0.2 92
2018-01-18 22:00:00 5.3 0 Calma 2 Oeste 0 1004.1 0 87
2018-01-18 21:00:00 5.7 0 Calma 4 Norte 0 1004 0 89
2018-01-18 20:00:00 7.4 0 Calma 4 Nordeste 0 1004.2 0.4 84
2018-01-18 19:00:00 9.8 0 Calma 8 Sudeste 0 1004.1 0.1 74
2018-01-18 18:00:00 11.7 0 Calma 11 Sur 0 1004 -0.2 66
2018-01-18 17:00:00 14.5 5 Sur 13 Sudeste 0 1003.8 -1.3 56
2018-01-18 16:00:00 15.7 3 Sur 13 Sudeste 0 1004 -2.7 53
2018-01-18 15:00:00 15.3 3 Sur 21 Sur 0 1004.2 -3.6 57
2018-01-18 14:00:00 14.4 11 Sur 18 Sur 0 1005.1 -3.6 63
2018-01-18 13:00:00 14 4 Sur 11 Sudoeste 0 1006.7 -2.1 67
2018-01-18 12:00:00 11.4 4 Nordeste 15 Este 0 1007.8 -0.7 72
2018-01-18 11:00:00 9 10 Nordeste 13 Nordeste 0 1008.7 0.5 79
2018-01-18 10:00:00 7.1 3 Nordeste 5 Nordeste 0 1008.8 0.8 91
2018-01-18 09:00:00 6.5 0 Calma 2 Nordeste 0 1008.5 0.6 90
2018-01-18 08:00:00 6.2 0 Calma 5 Oeste 0 1008.2 0 87
2018-01-18 07:00:00 5.3 0 Calma 5 Oeste 0 1008 -0.6 92
2018-01-18 06:00:00 5.3 3 Oeste 5 Oeste 0 1007.9 -1 91
2018-01-18 05:00:00 4.8 0 Calma 5 Sudoeste 0 1008.2 -0.8 90
2018-01-18 04:00:00 6 0 Calma 5 Nordeste 0 1008.6 -0.9 91
2018-01-18 03:00:00 5.2 2 Nordeste 5 Norte 0 1008.9 -0.9 93
2018-01-18 02:00:00 5 0 Calma 8 Noroeste 0 1009 -0.3 92
2018-01-18 01:00:00 6.2 3 Noroeste 9 Norte 0 1009.5 0.7 87
2018-01-18 00:00:00 6.8 0 Calma 18 Norte 0 1009.8 1.5 82
2018-01-17 23:00:00 6.1 2 Norte 11 Norte 0 1009.3 1.7 91
2018-01-17 22:00:00 7.9 2 Norte 13 Sur 0 1008.8 2.1 90
2018-01-17 21:00:00 8.9 2 Este 11 Sur 0 1008.3 2.3 84
2018-01-17 20:00:00 10.7 3 Sur 11 Sur 0 1007.6 2.5 72
2018-01-17 19:00:00 12 7 Sur 18 Sur 0 1006.7 2.3 70
2018-01-17 18:00:00 12.4 10 Sur 21 Sur 0 1006 2.5 74
2018-01-17 17:00:00 13.5 14 Sur 24 Sudoeste 0 1005.1 1.7 71
2018-01-17 16:00:00 14.6 18 Sur 24 Sur 0 1004.4 1 70
2018-01-17 15:00:00 13.5 7 Sudeste 22 Sur 0 1003.5 -0.1 58
2018-01-17 14:00:00 14.4 14 Sur 21 Sur 0 1003.4 0.1 71
2018-01-17 13:00:00 14.6 12 Sudoeste 24 Sudoeste 0 1003.4 1.6 65
2018-01-17 12:00:00 13.1 7 Sur 13 Sur 0 1003.6 2.4 66
2018-01-17 11:00:00 11.4 3 Sur 5 Sur 0 1003.3 3.3 73
2018-01-17 10:00:00 8.7 0 Calma 11 Este 0 1001.8 2.9 82
2018-01-17 09:00:00 5 0 Calma 5 Oeste 0 1001.2 3 93
2018-01-17 08:00:00 4.5 0 Calma 5 Nordeste 0 1000 1.8 91
2018-01-17 07:00:00 4.8 2 Nordeste 11 Sur 0 998.9 0.7 90
2018-01-17 06:00:00 10.9 7 Noroeste 26 Norte 0 998.2 -0.2 72
2018-01-17 05:00:00 10.8 9 Noroeste 28 Norte 0 998.2 -0.4 74
2018-01-17 04:00:00 4.8 0 Calma 8 Nordeste 0 998.2 -1.3 94
2018-01-17 03:00:00 6.1 0 Calma 11 Sudeste 0 998.4 -1.4 92
2018-01-17 02:00:00 6.4 0 Calma -- -- -- 998.6 -1.5 89
2018-01-17 01:00:00 11.9 12 Noroeste 24 Noroeste 0 999.5 -1.2 73
2018-01-17 00:00:00 7.8 8 Noroeste 18 Noroeste 0 999.8 -1.1 89
2018-01-16 23:00:00 6.5 0 Calma 4 Sudoeste 0 1000.1 -1 87
2018-01-16 22:00:00 8.7 5 Sudoeste 13 Sudoeste 0 1000.7 -0.6 81
2018-01-16 21:00:00 8.3 2 Noroeste 11 Noroeste 0 1000.9 -0.6 79
2018-01-16 20:00:00 10.1 3 Oeste 17 Oeste 0 1001.1 -0.5 70
2018-01-16 19:00:00 10.5 6 Oeste 15 Oeste 0 1001.3 -0.7 66
2018-01-16 18:00:00 13.2 4 Oeste 11 Sur 0 1001.5 -0.5 56
2018-01-16 17:00:00 17.4 8 Sur 13 Sur 0 1001.6 -0.7 45
2018-01-16 16:00:00 18.6 2 Sur 13 Sur 0 1002 -1 34
2018-01-16 15:00:00 18.2 5 Sur 13 Sur 0 1002 -1.7 35
2018-01-16 14:00:00 17.9 2 Oeste 15 Oeste 0 1002.3 -1.9 35
2018-01-16 13:00:00 16.1 0 Calma 13 Nordeste 0 1003 -0.9 47
2018-01-16 12:00:00 12.6 3 Sudoeste 13 Sur 0 1003.7 0.7 61
2018-01-16 11:00:00 9.6 4 Sudoeste 11 Sudoeste 0 1004.2 1 69
2018-01-16 10:00:00 6.5 0 Calma 8 Sur 0 1003.9 1.1 80
2018-01-16 09:00:00 3 2 Sudoeste 5 Noroeste 0 1003 0.5 90
2018-01-16 08:00:00 2.5 0 Calma 4 Oeste 0 1003.2 0.2 89
2018-01-16 07:00:00 3.1 0 Calma 2 Sudeste 0 1002.8 -0.7 89
2018-01-16 06:00:00 3.7 0 Calma 8 Sudeste 0 1002.5 -1.3 86
2018-01-16 05:00:00 4 0 Calma 8 Sur 0 1003 -1.6 86
2018-01-16 04:00:00 5.3 0 Calma 4 Sur 0 1003.5 -1.9 83
2018-01-16 03:00:00 4.9 6 Sudeste 9 Sudeste 0 1003.8 -1.6 85
2018-01-16 02:00:00 5 0 Calma 5 Sudoeste 0 1004.6 -1.2 82
2018-01-16 01:00:00 6 0 Calma 8 Sur 0 1005.4 0.2 78
2018-01-16 00:00:00 7.3 6 Oeste 24 Oeste 0 1005.4 0 72
2018-01-15 23:00:00 7.3 8 Oeste 18 Oeste 0 1005.8 0.7 71
2018-01-15 22:00:00 8.3 13 Oeste 28 Oeste 0 1005.2 -0.1 65
2018-01-15 21:00:00 8.1 17 Noroeste 32 Noroeste 0 1005.4 0.1 65
2018-01-15 20:00:00 7.9 10 Noroeste 24 Norte 0 1005.1 -0.1 67
2018-01-15 19:00:00 8.6 10 Noroeste 22 Noroeste 0 1005.3 -0.1 64
2018-01-15 18:00:00 9.1 8 Noroeste 18 Noroeste 0 1005.3 0.1 63
2018-01-15 17:00:00 10.9 16 Sur 26 Sur 0 1005.2 -0.6 66
2018-01-15 16:00:00 13.7 16 Sudoeste 26 Sudoeste 0 1005.4 -1.8 52
2018-01-15 15:00:00 13.6 19 Sudoeste 30 Sudoeste 0 1005.2 -3.2 55
2018-01-15 14:00:00 13.4 19 Sudoeste 30 Sudoeste 0 1005.8 -2.7 56
2018-01-15 13:00:00 12.6 4 Sudoeste -- -- -- 1007.2 -0.8 62
2018-01-15 12:00:00 10.4 2 Sur 11 Sur 0 1008.4 1 71
2018-01-15 11:00:00 8.4 4 Sur 8 Sur 0 1008.5 1.6 79
2018-01-15 10:00:00 6.3 0 Calma 4 Oeste 0 1008 1.9 88
2018-01-15 09:00:00 3 3 Sudoeste 5 Oeste 0 1007.4 1.6 98
2018-01-15 08:00:00 2.6 3 Norte 8 Norte 0 1006.9 1.6 98
2018-01-15 07:00:00 3 2 Nordeste 8 Norte 0 1006.1 1 96
2018-01-15 06:00:00 4.1 0 Calma 4 Oeste 0 1005.8 0.9 95
2018-01-15 05:00:00 4.9 0 Calma 5 Sudoeste 0 1005.3 0.5 96
2018-01-15 04:00:00 5.7 0 Calma 5 Norte 0 1005.1 0.5 93
2018-01-15 03:00:00 6.5 0 Calma 5 Nordeste 0 1004.9 0.5 90
2018-01-15 02:00:00 6.3 0 Calma 4 Nordeste 0 1004.8 1 92
2018-01-15 01:00:00 6.4 0 Calma 5 Nordeste 0 1004.6 1.5 91
2018-01-15 00:00:00 6.4 0 Calma 4 Nordeste 0 1004.4 1.7 93
2018-01-14 23:00:00 7 3 Noroeste 5 Noroeste 0 1003.8 1.8 89
2018-01-14 22:00:00 7 3 Sudoeste 8 Sudoeste 0 1003.1 1.8 91
2018-01-14 21:00:00 7.3 0 Calma 4 Nordeste 0 1002.7 2 88
2018-01-14 20:00:00 7.9 2 Noroeste 8 Norte 0 1002 2.1 83
2018-01-14 19:00:00 8.3 8 Nordeste 13 Nordeste 0 1001.3 2 80
2018-01-14 18:00:00 8.8 4 Este 15 Nordeste 0 1000.7 1.8 78
2018-01-14 17:00:00 9.9 12 Nordeste 21 Nordeste 0 999.9 1.2 71
2018-01-14 16:00:00 10.6 9 Nordeste 26 Nordeste 0 999.3 0.2 72
2018-01-14 15:00:00 10.8 10 Norte 22 Norte 0 998.9 -- 72
2018-01-14 14:00:00 10.1 16 Nordeste 28 Norte 0 998.7 -0.8 72
2018-01-14 13:00:00 9.9 19 Norte -- -- -- 999.1 0.4 73
2018-01-14 12:00:00 -- -- -- 5 Norte 0 -- -- --
2018-01-14 11:00:00 8.4 0 Calma 8 Norte 0 999.5 1.7 92
2018-01-14 10:00:00 8.5 0 Calma 11 Nordeste 0 998.7 1.2 94
2018-01-14 09:00:00 6.7 9 Nordeste 15 Nordeste 0 998.1 -- 98
2018-01-14 08:00:00 6.9 5 Noroeste 8 Noroeste 0 997.8 0.3 98
2018-01-14 07:00:00 6.7 0 Calma -- -- -- 997.5 -0.2 97
2018-01-14 06:00:00 -- -- -- -- -- -- -- -- --
2018-01-14 05:00:00 6.9 3 Sur 13 Sur 0 997.5 -0.7 96
2018-01-14 04:00:00 8 3 Sur 8 Sur 0 997.7 -1.3 95
2018-01-14 03:00:00 8.4 6 Sudoeste 13 Sur 0.2 998 -1.7 98
2018-01-14 02:00:00 8.2 0 Calma 4 Oeste 0.3 998.2 -1.9 99
2018-01-14 01:00:00 8.3 0 Calma 5 Este 0 999 -1.2 98
2018-01-14 00:00:00 8.7 5 Sudoeste 11 Sur 1.7 999.7 -1.1 97
2018-01-13 23:00:00 8.3 0 Calma 5 Oeste 1.3 1000.1 -0.9 96
2018-01-13 22:00:00 8.3 0 Calma 15 Sur 0.2 1000.2 -0.5 93
2018-01-13 21:00:00 9.1 15 Sur 22 Sur 0 1000.8 0 84
2018-01-13 20:00:00 9.3 14 Sur 21 Sur 0 1001 -0.1 76
2018-01-13 19:00:00 9.4 15 Sudoeste 28 Sur 0 1000.7 -0.5 75
2018-01-13 18:00:00 10.2 22 Sudoeste 37 Sudoeste 0 1000.8 -0.7 70
2018-01-13 17:00:00 10.7 23 Sudoeste 39 Sudoeste 0 1001.1 -1 69
2018-01-13 16:00:00 11 24 Sudoeste 45 Sudoeste 0 1001.2 -1.7 67
2018-01-13 15:00:00 11.1 28 Sudoeste 42 Sudoeste 0 1001.5 -2.5 66
2018-01-13 14:00:00 11.4 30 Sudoeste 46 Sudoeste 0 1002.1 -2.4 63
2018-01-13 13:00:00 12 30 Sudoeste 46 Sudoeste 0 1002.9 -1.7 59
2018-01-13 12:00:00 8.5 13 Sudoeste 18 Sudoeste 0 1004 -0.6 72
2018-01-13 11:00:00 5.2 4 Sudoeste 8 Sudoeste 0 1004.5 0 79
2018-01-13 10:00:00 2.5 0 Calma 4 Oeste 0 1004.6 0.1 85
2018-01-13 09:00:00 -0.8 4 Sudoeste 11 Oeste 0 1004.6 -0.3 95
2018-01-13 08:00:00 -3.2 4 Sudoeste 8 Oeste 0 1004.5 -0.5 96
2018-01-13 07:00:00 -3 0 Calma -- -- 0 1004.5 -1 95
2018-01-13 06:00:00 -2.5 0 Calma 8 Oeste 0 1004.9 -1.2 94
2018-01-13 05:00:00 -1.6 0 Calma 11 Oeste 0 1005 -1.5 96
2018-01-13 04:00:00 -1.4 0 Calma 5 Sudeste 0 1005.5 -1.3 94
2018-01-13 03:00:00 -0.8 0 Calma 5 Noroeste 0 1006.1 -1.2 95
2018-01-13 02:00:00 -0.4 0 Calma 5 Este 0 1006.5 -0.8 93
2018-01-13 01:00:00 0.4 0 Calma -- -- 0 1006.8 -0.4 93
2018-01-13 00:00:00 1.1 0 Calma 4 Sudoeste 0 1007.3 0.4 90
2018-01-12 23:00:00 1.9 0 Calma 8 Sudoeste 0 1007.3 0.8 87
2018-01-12 22:00:00 3.7 0 Calma 4 Oeste 0 1007.2 1.2 82
2018-01-12 21:00:00 4.1 0 Calma 5 Norte 0 1006.9 1.5 79
2018-01-12 20:00:00 5.8 2 Este 8 Sur 0 1006.5 1.6 72
2018-01-12 19:00:00 7.8 5 Sur 15 Sur 0 1006 1.6 64
2018-01-12 18:00:00 10.1 10 Sur 21 Sur 0 1005.4 1.1 53
2018-01-12 17:00:00 12.8 16 Sur 26 Sur 0 1004.9 0.7 46
2018-01-12 16:00:00 14.3 5 Sur 15 Sur 0 1004.4 -0.5 36
2018-01-12 15:00:00 14.3 3 Sur 18 Sur 0 1004.3 -1.7 36
2018-01-12 14:00:00 13.4 11 Sur 18 Sur 0 1004.2 -2.1 47
2018-01-12 13:00:00 12.8 4 Sur 15 Sur 0 1004.9 -1 48
2018-01-12 12:00:00 10.2 3 Oeste 11 Sur 0 1006 0.7 58
2018-01-12 11:00:00 6.7 0 Calma 8 Sur 0 1006.3 1.4 79
2018-01-12 10:00:00 3.4 0 Calma 4 Sudoeste 0 1005.9 1.4 88
2018-01-12 09:00:00 -0.2 0 Calma 8 Nordeste 0 1005.3 1.4 96
2018-01-12 08:00:00 -1.3 5 Nordeste 11 Norte 0 1004.9 1.3 98
2018-01-12 07:00:00 -1.5 6 Nordeste 11 Este 0 1004.5 1.1 98
2018-01-12 06:00:00 -1.1 3 Sur 5 Sur 0 1003.9 1 98
2018-01-12 05:00:00 -0.7 3 Nordeste 11 Nordeste 0 1003.6 1 98
2018-01-12 04:00:00 -0.2 3 Este 11 Oeste 0 1003.4 0.7 97
2018-01-12 03:00:00 0.4 2 Noroeste 8 Nordeste 0 1002.9 0.1 96
2018-01-12 02:00:00 0.9 0 Calma 9 Este 0 1002.6 0.1 95
2018-01-12 01:00:00 2.7 3 Este 15 Noroeste 0 1002.7 1 90
2018-01-12 00:00:00 4.7 6 Noroeste 13 Noroeste 0 1002.8 1.7 87
2018-01-11 23:00:00 3.5 3 Oeste 8 Norte 0 1002.5 1.7 90
2018-01-11 22:00:00 4.8 4 Norte 15 Norte 0 1001.7 1.5 89
2018-01-11 21:00:00 4.8 4 Nordeste 8 Nordeste 0 1001.1 1.3 90
2018-01-11 20:00:00 4.8 0 Calma 5 Nordeste 0 1000.8 1.7 91
2018-01-11 19:00:00 7.7 5 Sudoeste 8 Oeste 0 1000.2 1.7 79
2018-01-11 18:00:00 9.1 4 Sudoeste -- -- 0 999.8 1.9 75
2018-01-11 17:00:00 10.4 4 Sur 11 Sudoeste 0 999.1 1.4 69
2018-01-11 16:00:00 11.5 8 Sur 15 Sur 0 998.5 0.5 65
2018-01-11 15:00:00 12.2 3 Sur 8 Sudoeste 0 997.9 -0.5 60
2018-01-11 14:00:00 12.4 0 Calma 11 Este 0 997.7 -0.8 60
2018-01-11 13:00:00 11.8 4 Sur 17 Sur 0 998 -0.2 62
2018-01-11 12:00:00 11.7 0 Calma 9 Norte 0 998.4 0.9 60
2018-01-11 11:00:00 9.5 2 Oeste 5 Sudoeste 0 998.5 1.4 77
2018-01-11 10:00:00 6.5 0 Calma 5 Sudoeste 0 998.2 1.6 95
2018-01-11 09:00:00 6 0 Calma 4 Noroeste 0 997.5 1.5 94
2018-01-11 08:00:00 5.9 4 Oeste 5 Oeste 0 997.1 0.9 94
2018-01-11 07:00:00 6.1 3 Sudeste 8 Sudeste 0 996.6 -0.2 94
2018-01-11 06:00:00 7.1 3 Nordeste 17 Noroeste 0 996 -1 87
2018-01-11 05:00:00 6.5 5 Noroeste 8 Noroeste 0 996.2 -0.6 94
2018-01-11 04:00:00 6.4 4 Nordeste 17 Norte 0 996.8 0.8 94
2018-01-11 03:00:00 6.7 2 Norte 15 Nordeste 0.2 997 0.7 88
2018-01-11 02:00:00 7.3 12 Norte 22 Nordeste 0.2 996.8 0.5 80
2018-01-11 01:00:00 9.2 8 Noroeste 24 Norte 0 996 -0.6 65
2018-01-11 00:00:00 8.3 8 Noroeste 21 Noroeste 0 996.3 -0.4 71
2018-01-10 23:00:00 5.1 2 Nordeste 11 Sudoeste 0 996.3 -0.7 87
2018-01-10 22:00:00 5 0 Calma 9 Sur 0 996.6 -0.3 86
2018-01-10 21:00:00 4.9 3 Nordeste 8 Nordeste 0 996.7 -0.2 84
2018-01-10 20:00:00 6.5 0 Calma 8 Noroeste 0 997 0.2 77
2018-01-10 19:00:00 8.5 0 Calma 8 Noroeste 0 996.9 0.2 72
2018-01-10 18:00:00 9.9 0 Calma 13 Sur 0 996.9 0.2 69
2018-01-10 17:00:00 13.5 6 Sur 17 Sur 0 996.8 -0.6 47
2018-01-10 16:00:00 14.6 12 Sudeste 21 Sudeste 0 996.7 -1.5 43
2018-01-10 15:00:00 15.3 9 Sur 17 Sur 0 996.7 -2.5 39
2018-01-10 14:00:00 14.9 4 Sudeste 15 Sudeste 0 997.4 -2.7 40
2018-01-10 13:00:00 13.8 0 Calma 4 Sudeste 0 998.2 -1.8 43
2018-01-10 12:00:00 11.6 0 Calma 8 Nordeste 0 999.2 0 53
2018-01-10 11:00:00 8 3 Este 5 Este 0 1000.1 1.1 67
2018-01-10 10:00:00 4.1 0 Calma 4 Sudeste 0 1000 1.5 82
2018-01-10 09:00:00 3.3 5 Oeste 8 Oeste 0 999.2 1.2 80
2018-01-10 08:00:00 3.5 0 Calma 8 Oeste 0 999 0.9 77
2018-01-10 07:00:00 5.9 3 Sur 22 Oeste 0 998.5 0.5 67
2018-01-10 06:00:00 6.4 4 Oeste 15 Norte 0 998 -0.1 65
2018-01-10 05:00:00 4.6 0 Calma 11 Nordeste 0 998.1 0.2 73
2018-01-10 04:00:00 4.7 0 Calma 11 Nordeste 0 998 -0.5 73
2018-01-10 03:00:00 7.4 3 Sur 35 Oeste 0 998.1 -0.7 60
2018-01-10 02:00:00 9.2 21 Sudoeste 37 Sudoeste 0 997.9 -0.7 51
2018-01-10 01:00:00 10 17 Sudoeste 37 Sudoeste 0 998.5 0.1 45
2018-01-10 00:00:00 9.1 17 Sudoeste 28 Sudoeste 0 998.8 0.1 48
2018-01-09 23:00:00 8 15 Sudoeste 21 Sudoeste 0 998.6 -0.4 54
2018-01-09 22:00:00 7.9 10 Sudoeste 26 Sur 0 998.4 -0.7 56
2018-01-09 21:00:00 8.3 23 Sur 35 Sur 0 998.7 -0.2 54
2018-01-09 20:00:00 8.4 23 Sur 32 Sur 0 999 0.3 54
2018-01-09 19:00:00 7.7 18 Sur 24 Sur 0 999.1 0.6 61
2018-01-09 18:00:00 9.1 15 Sudoeste 30 Sudoeste 0 998.9 0.7 58
2018-01-09 17:00:00 10.9 19 Sudoeste 28 Sudoeste 0 998.7 0.2 53
2018-01-09 16:00:00 12.8 20 Sudoeste 32 Sudoeste 0 998.5 -0.7 46
2018-01-09 15:00:00 14.2 21 Sudoeste 37 Sudoeste 0 998.2 -1.9 43
2018-01-09 14:00:00 14.1 21 Sudoeste 30 Sudoeste 0 998.5 -1.6 47
2018-01-09 13:00:00 12.7 0 Calma 13 Oeste 0 999.2 -0.3 54
2018-01-09 12:00:00 10.3 5 Oeste 13 Oeste 0 1000.1 1.4 65
2018-01-09 11:00:00 7 6 Sur 13 Sur 0 1000.1 1.9 79
2018-01-09 10:00:00 4.8 3 Sur 15 Sur 0 999.5 2 91
2018-01-09 09:00:00 1.5 7 Oeste 13 Sudoeste 0 998.7 1.9 99
2018-01-09 08:00:00 1.3 4 Sur 5 Sur 0 998.2 1.5 99
2018-01-09 07:00:00 2.1 0 Calma 8 Sur 0 997.5 0.9 97
2018-01-09 06:00:00 3.7 3 Sudoeste 8 Sur 0 996.8 0.3 96
2018-01-09 05:00:00 4.9 3 Sur 15 Noroeste 0 996.7 0.6 86
2018-01-09 04:00:00 5.5 4 Oeste 8 Oeste 0 996.6 0.4 96
2018-01-09 03:00:00 6.3 0 Calma 4 Sudoeste 0 996.5 0.4 97
2018-01-09 02:00:00 6.7 0 Calma 4 Sur 0 996.1 0.5 95
2018-01-09 01:00:00 6.8 0 Calma 2 Nordeste 0 996.2 1.1 95
2018-01-09 00:00:00 7.2 0 Calma -- -- 0 996.1 1.2 95
2018-01-08 23:00:00 7.7 0 Calma 5 Sudoeste 0 995.6 1.1 93
2018-01-08 22:00:00 8 4 Sudoeste 8 Oeste 0 995.1 1.2 92
2018-01-08 21:00:00 8.2 3 Oeste 8 Nordeste 0 994.9 1.3 91
2018-01-08 20:00:00 9.2 5 Nordeste 22 Norte 0 994.5 1.6 84
2018-01-08 19:00:00 9.4 16 Norte 28 Nordeste 0 993.9 1.3 84
2018-01-08 18:00:00 9.9 19 Nordeste 30 Nordeste 0 993.6 1.2 82
2018-01-08 17:00:00 10.9 16 Nordeste 22 Nordeste 0 992.9 -0.3 76
2018-01-08 16:00:00 11.8 15 Nordeste 30 Nordeste 0 992.6 -1.4 74
2018-01-08 15:00:00 11.4 16 Nordeste 26 Nordeste 0 992.4 -1.9 80
2018-01-08 14:00:00 10 11 Nordeste 17 Nordeste 0 993.2 -1.3 83
2018-01-08 13:00:00 8.3 4 Este 8 Este 0 994 -0.5 95
2018-01-08 12:00:00 6.3 0 Calma 5 Nordeste 0 994.3 0.3 98
2018-01-08 11:00:00 4.7 4 Nordeste 8 Este 0 994.5 0.7 99
2018-01-08 10:00:00 3.2 0 Calma 4 Oeste 0 994.5 1.1 99
2018-01-08 09:00:00 2.1 0 Calma 5 Noroeste 0 994 1.2 100
2018-01-08 08:00:00 1.6 2 Norte 18 Sudeste 0 993.8 0.8 100
2018-01-08 07:00:00 1.2 2 Norte 5 Norte 0 993.4 0 100
2018-01-08 06:00:00 1.9 3 Nordeste 9 Sudeste 0 992.8 -0.5 100
2018-01-08 05:00:00 0.9 0 Calma 5 Este 0 993 0.3 99
2018-01-08 04:00:00 1.9 0 Calma 8 Nordeste 0 993.4 0.5 99
2018-01-08 03:00:00 2.3 5 Sur 8 Sur 0 993.3 1 98
2018-01-08 02:00:00 4.1 4 Este 13 Este 0 992.7 1.3 98
2018-01-08 01:00:00 4.3 0 Calma 8 Este 0 992.9 2.3 98
2018-01-08 00:00:00 5.2 0 Calma 13 Sur 0 992.3 2.4 97
2018-01-07 23:00:00 5.8 5 Sur 9 Sur 0 991.4 3.3 96
2018-01-07 22:00:00 7.4 6 Sudoeste 17 Sur 0 990.6 2.5 95
2018-01-07 21:00:00 7.9 5 Sur 21 Sur 0.2 989.9 2 95
2018-01-07 20:00:00 8.2 12 Oeste 24 Oeste 3.6 988.1 0.5 94
2018-01-07 19:00:00 8 2 Sudoeste 17 Oeste 0.6 988.1 0.1 92
2018-01-07 18:00:00 8.3 9 Oeste 32 Noroeste 0.9 987.9 0.3 87
2018-01-07 17:00:00 8.6 8 Noroeste 30 Sudoeste 0 987.6 -0.9 93
2018-01-07 16:00:00 9.6 9 Oeste 45 Sur 2.6 988 -0.8 89
2018-01-07 15:00:00 9.2 12 Sudoeste 33 Sudoeste 0.1 987.6 -1.3 88
2018-01-07 14:00:00 10 3 Sudoeste 18 Sudoeste 0.6 988.5 -0.3 91
2018-01-07 13:00:00 11 10 Sur 17 Sur 0.4 988.8 1.4 92
2018-01-07 12:00:00 11.5 20 Sur 33 Sur 0.9 988.9 2.1 93
2018-01-07 11:00:00 10.6 6 Nordeste 13 Nordeste 0 988.8 2.6 97
2018-01-07 10:00:00 10.1 9 Nordeste 13 Norte 0 987.4 2.2 97
2018-01-07 09:00:00 10 7 Sudoeste 26 Sudoeste 5.2 986.8 1.8 96
2018-01-07 08:00:00 11.7 5 Sur 15 Sur 7.2 986.2 1.7 99
2018-01-07 07:00:00 11.2 6 Nordeste 11 Nordeste 0 985.2 0.9 99
2018-01-07 06:00:00 11 3 Norte 11 Nordeste 0 985 0.7 97
2018-01-07 05:00:00 12 3 Este 15 Este 0 984.5 0.2 96
2018-01-07 04:00:00 12.7 5 Este 18 Sudeste 0 984.3 0 95
2018-01-07 03:00:00 12.8 6 Este 28 Sudeste 0 984.3 -1 94
2018-01-07 02:00:00 13.1 13 Este 24 Sudeste 0 984.3 -1.1 93
2018-01-07 01:00:00 13.1 9 Este 32 Este 0 984.3 -1.3 92
2018-01-07 00:00:00 12.6 9 Este 18 Nordeste 0 985.3 -0.5 94
2018-01-06 23:00:00 12.3 6 Nordeste 24 Nordeste 0 985.4 -0.4 95
2018-01-06 22:00:00 12.1 7 Nordeste 22 Nordeste 0 985.6 -0.3 96
2018-01-06 21:00:00 12.2 10 Nordeste 33 Nordeste 0 985.8 0.3 94
2018-01-06 20:00:00 12.7 12 Este 30 Nordeste 0 985.8 -0.1 88
2018-01-06 19:00:00 13 14 Este 26 Este 0 985.9 0 88
2018-01-06 18:00:00 12.8 14 Nordeste 18 Nordeste 0 985.5 -0.7 85
2018-01-06 17:00:00 13.3 6 Nordeste 17 Este 0 985.9 -0.7 77
2018-01-06 16:00:00 14.5 9 Este 17 Sudeste 0 985.9 -1.5 74
2018-01-06 15:00:00 15.1 5 Sudeste 11 Sudeste 0 986.2 -1.8 70
2018-01-06 14:00:00 14.7 0 Calma 4 Norte 0 986.6 -1.6 71
2018-01-06 13:00:00 13.6 0 Calma 5 Este 0 987.4 -0.8 69
2018-01-06 12:00:00 11.3 0 Calma 5 Nordeste 0 988 0.3 74
2018-01-06 11:00:00 7.7 3 Nordeste 5 Este 0 988.2 0.8 84
2018-01-06 10:00:00 4.1 0 Calma 2 Sudoeste 0 988.2 1.3 90
2018-01-06 09:00:00 1.7 0 Calma 4 Oeste 0 987.7 0.9 98
2018-01-06 08:00:00 0.7 0 Calma 5 Nordeste 0 987.4 0.1 97
2018-01-06 07:00:00 1.3 3 Noroeste 11 Norte 0 986.9 -0.9 97
2018-01-06 06:00:00 0.7 6 Norte 11 Norte 0 986.8 -1.6 96
2018-01-06 05:00:00 1.2 0 Calma 8 Nordeste 0 987.3 -1.2 95
2018-01-06 04:00:00 2.7 0 Calma 5 Sudoeste 0 987.8 -1.3 93
2018-01-06 03:00:00 2.9 0 Calma 5 Nordeste 0 988.4 -1.1 90
2018-01-06 02:00:00 4.1 0 Calma 4 Nordeste 0 988.5 -1.1 89
2018-01-06 01:00:00 5.2 0 Calma 5 Oeste 0 989.1 -0.8 87
2018-01-06 00:00:00 4.7 0 Calma 5 Sudeste 0 989.5 -0.2 85
2018-01-05 23:00:00 6.1 0 Calma 8 Oeste 0 989.6 -0.1 82
2018-01-05 22:00:00 7 4 Sudoeste 8 Sur 0 989.9 0.3 79
2018-01-05 21:00:00 9 0 Calma 4 Oeste 0 989.7 0.4 71
2018-01-05 20:00:00 9.7 4 Oeste 11 Oeste 0 989.7 0.5 69
2018-01-05 19:00:00 13.5 4 Oeste 11 Noroeste 0 989.6 0.6 56
2018-01-05 18:00:00 15.3 8 Oeste 26 Oeste 0 989.3 0.1 50
2018-01-05 17:00:00 17.4 9 Noroeste 28 Noroeste 0 989.2 -0.5 46
2018-01-05 16:00:00 19.1 14 Noroeste 28 Noroeste 0 989 -1.3 40
2018-01-05 15:00:00 19.3 6 Noroeste 18 Noroeste 0 989.2 -2.4 41
2018-01-05 14:00:00 18.7 8 Oeste 32 Norte 0 989.7 -2.7 43
2018-01-05 13:00:00 17.8 16 Noroeste 32 Noroeste 0 990.3 -2.8 45
2018-01-05 12:00:00 17.3 7 Noroeste 22 Noroeste 0 991.6 -1.9 48
2018-01-05 11:00:00 12.6 5 Sudoeste 15 Oeste 0 992.4 -1.4 75
2018-01-05 10:00:00 8.2 5 Sudoeste 8 Sur 0 993.1 -1.3 88
2018-01-05 09:00:00 4.9 2 Sur 18 Sur 0 993.5 -1.6 99
2018-01-05 08:00:00 4.2 5 Sudoeste 8 Sudoeste 0 993.8 -1.8 99
2018-01-05 07:00:00 3.8 0 Calma 8 Oeste 0 994.4 -1.7 97
2018-01-05 06:00:00 4.9 4 Oeste 13 Oeste 0 995.1 -2.1 98
2018-01-05 05:00:00 5 0 Calma 8 Oeste 0 995.6 -2.4 97
2018-01-05 04:00:00 5.6 0 Calma 13 Oeste 0 996.1 -2.8 96
2018-01-05 03:00:00 6.4 5 Oeste 8 Oeste 0 997.2 -2.4 96
2018-01-05 02:00:00 6.6 3 Nordeste 11 Nordeste 0 998 -2.4 92
2018-01-05 01:00:00 7.6 3 Sur 18 Oeste 0 998.9 -1.8 92
2018-01-05 00:00:00 7.6 5 Sudoeste 18 Sur 0 999.6 -0.9 93
2018-01-04 23:00:00 9.5 4 Nordeste 8 Nordeste 0 1000.4 -0.5 88
2018-01-04 22:00:00 10.1 0 Calma 11 Norte 0 1000.7 -0.1 86
2018-01-04 21:00:00 10.7 5 Nordeste 11 Nordeste 0 1000.5 -0.2 84
2018-01-04 20:00:00 12.3 0 Calma 5 Oeste 0 1000.9 0.2 78
2018-01-04 19:00:00 13.5 4 Oeste 13 Sudeste 0 1000.8 0.2 74
2018-01-04 18:00:00 14.9 5 Sudeste 18 Sur 0 1000.7 0.2 69
2018-01-04 17:00:00 17.4 9 Sudeste 17 Sur 0 1000.7 -0.3 58
2018-01-04 16:00:00 20.7 2 Sudoeste 11 Sudoeste 0 1000.6 -1.1 48
2018-01-04 15:00:00 21.4 2 Sur 8 Nordeste 0 1000.5 -1.9 44
2018-01-04 14:00:00 20.9 0 Calma 15 Sudeste 0 1001 -1.9 48
2018-01-04 13:00:00 19.3 7 Sudeste 13 Este 0 1001.7 -1 56
2018-01-04 12:00:00 17.6 0 Calma 8 Oeste 0 1002.4 -0.4 62
2018-01-04 11:00:00 13.6 0 Calma 13 Sudoeste 0 1002.9 0.3 77
2018-01-04 10:00:00 10.1 3 Nordeste 8 Noroeste 0 1002.7 0.6 95
2018-01-04 09:00:00 6 5 Oeste 17 Oeste 0 1002.8 0.4 98
2018-01-04 08:00:00 4.1 9 Sudoeste 15 Sudoeste 0 1002.6 0.2 95
2018-01-04 07:00:00 6.4 5 Norte 15 Este 0 1002.1 -0.6 97
2018-01-04 06:00:00 4.8 9 Oeste 13 Sudoeste 0 1002.4 -0.6 95
2018-01-04 05:00:00 6.9 0 Calma 11 Oeste 0 1002.4 -1.4 92
2018-01-04 04:00:00 6.2 2 Oeste 15 Nordeste 0 1002.7 -1.6 93
2018-01-04 03:00:00 7.7 6 Nordeste 11 Norte 0 1003 -1.2 92
2018-01-04 02:00:00 8 5 Norte 15 Norte 0 1003.8 -0.9 93
2018-01-04 01:00:00 7.5 0 Calma 11 Este 0 1004.3 -0.7 91
2018-01-04 00:00:00 8.4 4 Oeste 8 Noroeste 0 1004.2 -0.4 87
2018-01-03 23:00:00 9.4 2 Norte 11 Norte 0 1004.7 0.3 82
2018-01-03 22:00:00 9.4 7 Nordeste 17 Norte 0 1005 0.8 86
2018-01-03 21:00:00 10.3 4 Norte 8 Norte 0 1004.6 0.8 79
2018-01-03 20:00:00 12.2 5 Noroeste 8 Sudoeste 0 1004.4 0.8 76
2018-01-03 19:00:00 13.2 6 Oeste 11 Oeste 0 1004.2 1.3 70
2018-01-03 18:00:00 15.2 0 Calma 8 Norte 0 1003.8 0.9 61
2018-01-03 17:00:00 18.1 5 Norte 11 Oeste 0 1003.6 0 51
2018-01-03 16:00:00 20.2 12 Oeste 26 Norte 0 1002.9 -1.2 45
2018-01-03 15:00:00 19.9 14 Noroeste 37 Noroeste 0 1002.9 -2.5 45
2018-01-03 14:00:00 19.4 0 Calma 13 Oeste 0 1003.6 -2.4 48
2018-01-03 13:00:00 18.6 11 Noroeste 22 Noroeste 0 1004.1 -2 51
2018-01-03 12:00:00 14.2 0 Calma 8 Sudeste 0 1005.4 -0.7 66
2018-01-03 11:00:00 9.7 0 Calma 11 Sudoeste 0 1006 -0.5 83
2018-01-03 10:00:00 8.1 4 Oeste 11 Sudoeste 0 1006.1 -0.3 91
2018-01-03 09:00:00 5.2 7 Oeste 13 Oeste 0 1006.1 -0.2 96
2018-01-03 08:00:00 4.7 3 Sudoeste 11 Noroeste 0 1006.5 0.1 91
2018-01-03 07:00:00 4.3 5 Oeste 8 Oeste 0 1006.4 -0.4 94
2018-01-03 06:00:00 4.2 2 Este 8 Sudoeste 0 1006.3 -0.4 90
2018-01-03 05:00:00 5.7 2 Sudoeste 13 Oeste 0 1006.4 -0.5 90
2018-01-03 04:00:00 5.6 5 Oeste 11 Sudoeste 0 1006.8 -0.3 90
2018-01-03 03:00:00 5.1 4 Sudoeste 5 Oeste 0 1006.7 -0.4 91
2018-01-03 02:00:00 5.7 0 Calma 8 Nordeste 0 1006.9 -0.1 88
2018-01-03 01:00:00 5.2 4 Norte 8 Nordeste 0 1007.1 0.1 89
2018-01-03 00:00:00 5.8 2 Sudoeste 15 Sur 0 1007.1 -0.3 86
2018-01-02 23:00:00 6.4 0 Calma 5 Sudoeste 0 1007 0.1 86
2018-01-02 22:00:00 6.1 4 Sur 13 Sur 0 1007 0.4 84
2018-01-02 21:00:00 8.4 4 Oeste 8 Oeste 0 1007.4 0.6 79
2018-01-02 20:00:00 8.2 0 Calma 5 Nordeste 0 1006.9 0.3 77
2018-01-02 19:00:00 9.5 3 Sudoeste 5 Sudoeste 0 1006.6 -0.1 73
2018-01-02 18:00:00 11.7 5 Sudoeste 11 Sudoeste 0 1006.8 -0.2 63
2018-01-02 17:00:00 13.9 5 Sudoeste 11 Sur 0 1006.6 -0.5 56
2018-01-02 16:00:00 14.8 6 Sur 13 Sur 0 1006.7 -1.6 52
2018-01-02 15:00:00 15 2 Este 18 Este 0 1007 -2 51
2018-01-02 14:00:00 13.3 2 Este 8 Nordeste 0 1007.1 -- 61
2018-01-02 13:00:00 13.6 5 Este 15 Este 0 1008.3 -- 60
2018-01-02 12:00:00 10.6 6 Este -- -- -- 1009 -- 66
2018-01-02 11:00:00 -- -- -- -- -- -- -- -- --
2018-01-02 10:00:00 -- -- -- -- -- -- -- -- --
2018-01-02 09:00:00 -- -- -- -- -- -- -- -- --
2018-01-02 08:00:00 -- -- -- -- -- -- -- -- --
2018-01-02 07:00:00 -- -- -- -- -- -- -- -- --
2018-01-02 06:00:00 -- -- -- -- -- -- -- -- --
2018-01-02 05:00:00 -- -- -- -- -- -- -- -- --
2018-01-02 04:00:00 -- -- -- -- -- -- -- -- --
2018-01-02 03:00:00 -- -- -- -- -- -- -- -- --
2018-01-02 02:00:00 -- -- -- -- -- -- -- -- --
2018-01-02 01:00:00 -- -- -- -- -- -- -- -- --
2018-01-02 00:00:00 -- -- -- -- -- -- -- -- --
2018-01-01 23:00:00 -- -- -- -- -- -- -- -- --
2018-01-01 22:00:00 -- -- -- -- -- -- -- -- --
2018-01-01 21:00:00 -- -- -- -- -- -- -- -- --
2018-01-01 20:00:00 -- -- -- -- -- -- -- -- --
2018-01-01 19:00:00 -- -- -- -- -- -- -- -- --
2018-01-01 18:00:00 -- -- -- -- -- -- -- -- --
2018-01-01 17:00:00 -- -- -- -- -- -- -- -- --
2018-01-01 16:00:00 -- -- -- -- -- -- -- -- --
2018-01-01 15:00:00 14.9 30 Sudoeste 50 Sudoeste 0 1003.9 -4.4 32
2018-01-01 14:00:00 15.7 26 Oeste 45 Oeste 0 1004.4 -4.8 28
2018-01-01 13:00:00 15.7 8 Sudoeste 30 Sudoeste 0 1006.3 -3.1 36
2018-01-01 12:00:00 14.3 21 Sudoeste 35 Sudoeste 0 1008.3 0 36
2018-01-01 11:00:00 11.3 4 Sudeste 8 Sudeste 0 1009.2 1.6 64
2018-01-01 10:00:00 8.2 0 Calma 11 Nordeste 0 1009.4 2.3 84
2018-01-01 09:00:00 4.4 0 Calma 13 Sudoeste 0 1008.3 2.4 93
2018-01-01 08:00:00 5.2 7 Sudoeste 17 Sudoeste 0 1007.6 2.7 92
2018-01-01 07:00:00 5.2 0 Calma 21 Sudoeste 0 1007.1 2.8 94
2018-01-01 06:00:00 5.6 5 Sur 8 Sur 0 1005.9 2.2 92
2018-01-01 05:00:00 6.7 0 Calma 11 Noroeste 0 1004.9 2.3 86
2018-01-01 04:00:00 8.7 3 Norte 15 Noroeste 0 1004.3 1.6 88
2018-01-01 03:00:00 10.5 7 Oeste 13 Oeste 0 1003.7 1.7 86
2018-01-01 02:00:00 10.3 0 Calma 8 Este 0 1002.6 1.1 90
2018-01-01 01:00:00 10.2 0 Calma 11 Oeste 0 1002.7 2.1 86
2018-01-01 00:00:00 10 0 Calma 11 Sudoeste 0 1002 2 81
2017-12-31 23:00:00 10.3 7 Sudoeste 22 Sur 0 1001.5 2.3 71
2017-12-31 22:00:00 11.9 4 Oeste 17 Oeste 0 1000.6 3.5 63
2017-12-31 21:00:00 11.6 5 Norte 13 Norte 0 1000 3.6 67
2017-12-31 20:00:00 13.3 5 Norte 35 Oeste 0 999.2 2.6 56
2017-12-31 19:00:00 14.1 15 Noroeste 33 Noroeste 0 997.1 -0.3 46
2017-12-31 18:00:00 15.4 0 Calma 18 Oeste 0 996.4 -1.3 36
2017-12-31 17:00:00 17.6 9 Sudoeste 42 Oeste 0 996.6 -2.1 31
2017-12-31 16:00:00 19.7 19 Sudoeste 41 Sudoeste 0 997.4 -2.9 32
2017-12-31 15:00:00 19.5 21 Sudoeste 41 Sudoeste 0 997.7 -4.2 38
2017-12-31 14:00:00 20.2 24 Sudoeste 39 Sur 0 998.7 -4.5 36
2017-12-31 13:00:00 18.1 16 Sur 24 Sur 0 1000.3 -3 49
2017-12-31 12:00:00 13.4 4 Sudoeste 9 Sudoeste 0 1001.9 -2 67
2017-12-31 11:00:00 8.7 0 Calma 5 Sudoeste 0 1003.2 -1 87
2017-12-31 10:00:00 4.1 3 Sudoeste 5 Sur 0 1003.3 -1.4 98
2017-12-31 09:00:00 1.7 4 Sur 8 Sur 0 1003.9 -1.4 99
2017-12-31 08:00:00 1.2 2 Sur 11 Sur 0 1004.2 -2 99
2017-12-31 07:00:00 1.5 4 Sudoeste 11 Oeste 0 1004.7 -2.2 99
2017-12-31 06:00:00 1.7 3 Oeste 8 Oeste 0 1005.3 -2 98
2017-12-31 05:00:00 2.7 0 Calma 5 Oeste 0 1006.2 -1.4 98
2017-12-31 04:00:00 2.9 0 Calma 2 Sur 0 1006.9 -1.1 98
2017-12-31 03:00:00 3.8 0 Calma 4 Sur 0 1007.3 -1 97
2017-12-31 02:00:00 4.3 2 Sur 4 Sur 0 1007.6 -0.7 96
2017-12-31 01:00:00 4.8 0 Calma -- -- 0 1008 -0.4 96